createdAt,value
2018-01-13T00:00:11.133Z,76.21
2018-01-13T00:00:51.482Z,76.69
2018-01-13T00:01:31.842Z,76.88
2018-01-13T00:02:12.183Z,76.69
2018-01-13T00:02:52.599Z,76.21
2018-01-13T00:03:33.095Z,76.4
2018-01-13T00:04:13.420Z,76.31
2018-01-13T00:04:53.813Z,76.69
2018-01-13T00:05:34.209Z,77.17
2018-01-13T00:06:14.574Z,77.17
2018-01-13T00:06:54.937Z,77.42
2018-01-13T00:07:35.358Z,77.89
2018-01-13T00:08:15.707Z,78.65
2018-01-13T00:08:56.153Z,78.46
2018-01-13T00:09:36.486Z,78.85
2018-01-13T00:10:16.875Z,79.22
2018-01-13T00:10:57.295Z,78.56
2018-01-13T00:11:37.660Z,79.13
2018-01-13T00:12:18.039Z,79.03
2018-01-13T00:12:58.420Z,78.56
2018-01-13T00:13:38.895Z,79.03
2018-01-13T00:14:19.217Z,79.03
2018-01-13T00:14:59.614Z,79.13
2018-01-13T00:15:40.056Z,79.51
2018-01-13T00:16:20.411Z,80.23
2018-01-13T00:17:00.887Z,80.9
2018-01-13T00:17:41.208Z,80.99
2018-01-13T00:18:21.609Z,81.47
2018-01-13T00:19:01.999Z,82.04
2018-01-13T00:19:42.465Z,81.79
2018-01-13T00:22:01.833Z,80.46
2018-01-13T00:22:54.186Z,80.46
2018-01-13T00:23:46.193Z,80.36
2018-01-13T00:24:38.592Z,79.99
2018-01-13T00:25:30.818Z,80.08
2018-01-13T00:26:23.110Z,79.89
2018-01-13T00:27:16.271Z,79.8
2018-01-13T00:28:09.069Z,80.27
2018-01-13T00:29:02.047Z,79.89
2018-01-13T00:29:54.177Z,80.08
2018-01-13T00:30:46.747Z,80.46
2018-01-13T00:31:39.350Z,80.36
2018-01-13T00:32:31.360Z,80.18
2018-01-13T00:33:23.485Z,80.36
2018-01-13T00:34:15.477Z,80.08
2018-01-13T00:35:07.505Z,79.99
2018-01-13T00:35:59.191Z,79.89
2018-01-13T00:36:51.391Z,80.08
2018-01-13T00:37:43.838Z,79.99
2018-01-13T00:38:36.720Z,80.08
2018-01-13T00:39:29.029Z,79.6
2018-01-13T00:40:21.718Z,79.6
2018-01-13T00:41:14.016Z,79.8
2018-01-13T00:42:07.292Z,79.8
2018-01-13T00:42:59.300Z,79.51
2018-01-13T00:43:51.971Z,79.99
2018-01-13T00:44:44.185Z,80.08
2018-01-13T00:45:36.769Z,79.22
2018-01-13T00:46:29.156Z,79.22
2018-01-13T00:47:21.234Z,79.22
2018-01-13T00:48:13.669Z,78.94
2018-01-13T00:49:06.217Z,78.56
2018-01-13T00:49:58.831Z,78.46
2018-01-13T00:50:50.974Z,79.22
2018-01-13T00:51:43.213Z,79.6
2018-01-13T00:52:34.559Z,79.57
2018-01-13T00:53:27.023Z,80.13
2018-01-13T00:54:19.189Z,80.99
2018-01-13T00:55:11.750Z,80.94
2018-01-13T00:56:04.278Z,80.65
2018-01-13T00:56:56.710Z,80.18
2018-01-13T00:57:49.150Z,80.18
2018-01-13T00:58:41.690Z,79.99
2018-01-13T00:59:34.320Z,79.41
2018-01-13T01:00:26.715Z,79.47
2018-01-13T01:01:19.629Z,80.33
2018-01-13T01:02:12.119Z,79.94
2018-01-13T01:03:04.849Z,80.99
2018-01-13T01:03:56.891Z,82.04
2018-01-13T01:04:49.348Z,82.04
2018-01-13T01:05:41.794Z,82.14
2018-01-13T01:06:34.168Z,81.85
2018-01-13T01:07:26.328Z,82.04
2018-01-13T01:08:18.569Z,81.76
2018-01-13T01:09:10.352Z,81.28
2018-01-13T01:10:02.324Z,81.28
2018-01-13T01:10:55.804Z,81.66
2018-01-13T01:11:47.887Z,82.51
2018-01-13T01:13:47.760Z,82.42
2018-01-13T01:14:39.954Z,82.51
2018-01-13T01:15:32.726Z,81.95
2018-01-13T01:16:24.910Z,81.28
2018-01-13T01:17:17.135Z,81.47
2018-01-13T01:18:09.724Z,81.09
2018-01-13T01:19:03.820Z,80.8
2018-01-13T01:19:57.058Z,80.84
2018-01-13T01:20:49.256Z,80.71
2018-01-13T01:21:41.527Z,80.23
2018-01-13T01:22:34.367Z,80.42
2018-01-13T01:23:27.037Z,81.47
2018-01-13T01:24:19.582Z,81.28
2018-01-13T01:25:12.079Z,81.47
2018-01-13T01:26:05.914Z,80.99
2018-01-13T01:26:57.926Z,81.66
2018-01-13T01:27:50.438Z,81.28
2018-01-13T01:28:41.490Z,81.47
2018-01-13T01:29:33.896Z,81.47
2018-01-13T01:30:14.798Z,81.28
2018-01-13T01:30:55.272Z,81.18
2018-01-13T01:31:35.675Z,81.47
2018-01-13T01:32:16.021Z,81.09
2018-01-13T01:32:56.548Z,81.95
2018-01-13T01:33:36.815Z,82.04
2018-01-13T01:34:17.219Z,81.76
2018-01-13T01:34:57.634Z,81.95
2018-01-13T01:35:38.002Z,81.95
2018-01-13T01:36:18.402Z,81.76
2018-01-13T01:36:58.864Z,82.38
2018-01-13T01:37:39.173Z,82.32
2018-01-13T01:38:19.643Z,82.86
2018-01-13T01:38:59.993Z,83.42
2018-01-13T01:39:40.417Z,83.23
2018-01-13T01:40:20.814Z,83.65
2018-01-13T01:41:01.151Z,82.95
2018-01-13T01:41:41.627Z,83.52
2018-01-13T01:42:22.031Z,83.62
2018-01-13T01:43:02.473Z,83.33
2018-01-13T01:43:42.899Z,82.86
2018-01-13T01:44:23.219Z,83.04
2018-01-13T01:45:03.599Z,83.33
2018-01-13T01:45:43.981Z,83.33
2018-01-13T01:46:24.397Z,83.81
2018-01-13T01:47:04.761Z,84.66
2018-01-13T01:47:45.148Z,84.76
2018-01-13T01:48:25.561Z,83.81
2018-01-13T01:49:05.956Z,83.71
2018-01-13T01:49:46.395Z,83.33
2018-01-13T01:50:26.749Z,83.71
2018-01-13T01:51:07.136Z,83.71
2018-01-13T01:51:47.572Z,83.71
2018-01-13T01:52:27.946Z,83.71
2018-01-13T01:53:08.388Z,83.71
2018-01-13T01:53:48.771Z,83.9
2018-01-13T01:54:29.190Z,84.47
2018-01-13T01:55:09.548Z,84.56
2018-01-13T01:55:49.955Z,84.38
2018-01-13T01:56:30.343Z,84.38
2018-01-13T01:57:10.841Z,84.56
2018-01-13T01:57:51.166Z,85.33
2018-01-13T01:58:31.521Z,85.04
2018-01-13T01:59:11.976Z,84.95
2018-01-13T01:59:52.320Z,84.85
2018-01-13T02:00:32.771Z,85.61
2018-01-13T02:01:13.170Z,85.61
2018-01-13T02:01:53.536Z,84.85
2018-01-13T02:02:33.916Z,84.56
2018-01-13T02:03:14.366Z,84.76
2018-01-13T02:03:54.836Z,84.76
2018-01-13T02:04:35.196Z,84.95
2018-01-13T02:05:15.621Z,84.56
2018-01-13T02:05:55.969Z,84.09
2018-01-13T02:06:36.400Z,83.9
2018-01-13T02:07:16.781Z,84.09
2018-01-13T02:07:57.168Z,84
2018-01-13T02:08:37.513Z,83.9
2018-01-13T02:09:17.953Z,84.47
2018-01-13T02:09:58.316Z,84.56
2018-01-13T02:10:38.699Z,84.56
2018-01-13T02:11:19.162Z,84
2018-01-13T02:11:59.512Z,83.9
2018-01-13T02:12:39.922Z,84
2018-01-13T02:13:20.339Z,84.56
2018-01-13T02:14:00.681Z,84.85
2018-01-13T02:14:41.106Z,85.52
2018-01-13T02:15:21.497Z,85.24
2018-01-13T02:16:01.945Z,84.38
2018-01-13T02:16:42.312Z,84.19
2018-01-13T02:17:22.722Z,83.81
2018-01-13T02:18:03.111Z,83.9
2018-01-13T02:18:43.517Z,84
2018-01-13T02:19:23.889Z,84.56
2018-01-13T02:20:04.317Z,85.04
2018-01-13T02:20:44.717Z,85.14
2018-01-13T02:21:25.132Z,84.52
2018-01-13T02:22:05.489Z,83.85
2018-01-13T02:22:45.888Z,83.65
2018-01-13T02:23:26.300Z,83.09
2018-01-13T02:24:06.720Z,82.14
2018-01-13T02:24:47.084Z,82.14
2018-01-13T02:25:27.459Z,81.85
2018-01-13T02:26:07.940Z,82.42
2018-01-13T02:26:48.346Z,82.99
2018-01-13T02:27:28.715Z,83.28
2018-01-13T02:28:09.099Z,83.09
2018-01-13T02:28:49.526Z,83.37
2018-01-13T02:29:29.857Z,83.09
2018-01-13T02:30:10.247Z,82.9
2018-01-13T02:30:50.690Z,82.51
2018-01-13T02:31:31.134Z,82.8
2018-01-13T02:32:11.514Z,82.42
2018-01-13T02:32:51.892Z,82.51
2018-01-13T02:33:32.362Z,82.23
2018-01-13T02:34:12.779Z,81.95
2018-01-13T02:34:53.116Z,81.95
2018-01-13T02:35:33.517Z,81.18
2018-01-13T02:36:13.942Z,81.37
2018-01-13T02:36:54.309Z,81.37
2018-01-13T02:37:34.665Z,81.47
2018-01-13T02:38:15.071Z,81.76
2018-01-13T02:38:55.558Z,82.14
2018-01-13T02:39:35.942Z,82.14
2018-01-13T02:40:16.315Z,82.61
2018-01-13T02:40:56.755Z,82.23
2018-01-13T02:41:37.200Z,82.14
2018-01-13T02:42:17.561Z,81.95
2018-01-13T02:42:57.892Z,81.95
2018-01-13T02:43:38.302Z,82.14
2018-01-13T02:44:18.785Z,82.42
2018-01-13T02:44:59.148Z,82.42
2018-01-13T02:45:39.663Z,82.51
2018-01-13T02:46:20.015Z,83.52
2018-01-13T02:47:00.359Z,83.47
2018-01-13T02:47:40.861Z,82.61
2018-01-13T02:48:21.204Z,82.67
2018-01-13T02:49:01.583Z,83.71
2018-01-13T02:49:41.974Z,83.52
2018-01-13T02:50:22.427Z,83.42
2018-01-13T02:51:02.807Z,83.81
2018-01-13T02:51:43.197Z,83.52
2018-01-13T02:52:23.615Z,83.62
2018-01-13T02:53:03.999Z,83.9
2018-01-13T02:53:44.413Z,83.52
2018-01-13T02:54:24.801Z,83.33
2018-01-13T02:55:05.170Z,83.52
2018-01-13T02:55:45.558Z,84.09
2018-01-13T02:56:25.992Z,83.81
2018-01-13T02:57:06.415Z,83.71
2018-01-13T02:57:46.813Z,83.62
2018-01-13T02:58:27.174Z,84
2018-01-13T02:59:07.626Z,84
2018-01-13T02:59:48.021Z,83.71
2018-01-13T03:00:28.367Z,84.09
2018-01-13T03:01:08.814Z,83.81
2018-01-13T03:01:49.122Z,83.81
2018-01-13T03:02:29.573Z,83.9
2018-01-13T03:03:09.971Z,83.62
2018-01-13T03:03:50.349Z,83.71
2018-01-13T03:04:30.766Z,83.62
2018-01-13T03:05:11.182Z,84.76
2018-01-13T03:05:51.576Z,84.38
2018-01-13T03:06:31.880Z,84.76
2018-01-13T03:07:12.304Z,83.81
2018-01-13T03:07:52.646Z,83.62
2018-01-13T03:08:33.099Z,84.85
2018-01-13T03:09:13.493Z,84.47
2018-01-13T03:09:53.852Z,84.09
2018-01-13T03:10:34.325Z,83.9
2018-01-13T03:11:14.827Z,84.85
2018-01-13T03:11:55.139Z,84.19
2018-01-13T03:12:35.539Z,84
2018-01-13T03:13:15.905Z,84.66
2018-01-13T03:13:56.332Z,85.04
2018-01-13T03:14:36.701Z,84.76
2018-01-13T03:15:17.033Z,85.42
2018-01-13T03:15:57.447Z,84.85
2018-01-13T03:16:37.891Z,85.04
2018-01-13T03:17:18.277Z,85.33
2018-01-13T03:17:58.668Z,85.52
2018-01-13T03:18:39.090Z,85.42
2018-01-13T03:19:19.485Z,85.42
2018-01-13T03:19:59.858Z,86.18
2018-01-13T03:20:40.365Z,85.52
2018-01-13T03:21:20.681Z,85.42
2018-01-13T03:22:01.095Z,85.71
2018-01-13T03:22:41.481Z,85.61
2018-01-13T03:23:21.917Z,85.42
2018-01-13T03:24:02.340Z,85.24
2018-01-13T03:24:42.701Z,85.52
2018-01-13T03:25:23.051Z,84.95
2018-01-13T03:26:03.521Z,84.95
2018-01-13T03:26:43.945Z,85.33
2018-01-13T03:27:24.280Z,85.42
2018-01-13T03:28:04.692Z,84.85
2018-01-13T03:28:45.016Z,85.71
2018-01-13T03:29:25.521Z,85.61
2018-01-13T03:30:05.945Z,85.33
2018-01-13T03:30:46.310Z,85.24
2018-01-13T03:31:26.694Z,85.61
2018-01-13T03:32:07.128Z,85.14
2018-01-13T03:32:47.446Z,85.04
2018-01-13T03:33:27.889Z,84.85
2018-01-13T03:34:08.311Z,84.76
2018-01-13T03:34:48.635Z,84.76
2018-01-13T03:35:29.058Z,84.19
2018-01-13T03:36:09.426Z,84.76
2018-01-13T03:36:49.850Z,84.56
2018-01-13T03:37:30.245Z,83.9
2018-01-13T03:38:10.728Z,83.71
2018-01-13T03:38:51.095Z,84.76
2018-01-13T03:39:31.426Z,84.56
2018-01-13T03:40:11.813Z,84.47
2018-01-13T03:40:52.178Z,84.47
2018-01-13T03:41:32.577Z,84.66
2018-01-13T03:42:12.998Z,85.04
2018-01-13T03:42:53.386Z,84.95
2018-01-13T03:43:33.800Z,84.95
2018-01-13T03:44:14.239Z,84.95
2018-01-13T03:44:54.574Z,84.85
2018-01-13T03:45:35.035Z,84.56
2018-01-13T03:46:15.456Z,84.66
2018-01-13T03:46:55.824Z,84.56
2018-01-13T03:47:36.263Z,85.04
2018-01-13T03:48:16.605Z,85.24
2018-01-13T03:48:57.030Z,85.71
2018-01-13T03:49:37.485Z,85.14
2018-01-13T03:50:17.790Z,84.95
2018-01-13T03:50:58.166Z,85.52
2018-01-13T03:51:38.617Z,84.85
2018-01-13T03:52:18.990Z,85.24
2018-01-13T03:52:59.349Z,84.47
2018-01-13T03:53:39.763Z,84.76
2018-01-13T03:54:20.210Z,85.24
2018-01-13T03:55:00.607Z,84.76
2018-01-13T03:55:40.970Z,85.04
2018-01-13T03:56:21.382Z,84.95
2018-01-13T03:57:01.746Z,84.76
2018-01-13T03:57:42.114Z,84.66
2018-01-13T03:58:22.579Z,85.04
2018-01-13T03:59:02.892Z,84.85
2018-01-13T03:59:43.324Z,84.95
2018-01-13T04:00:23.732Z,84.85
2018-01-13T04:01:04.165Z,85.61
2018-01-13T04:01:44.591Z,85.52
2018-01-13T04:02:24.953Z,84.66
2018-01-13T04:03:05.349Z,85.33
2018-01-13T04:03:45.743Z,85.61
2018-01-13T04:41:24.082Z,90.66
2018-01-13T04:42:16.062Z,90.09
2018-01-13T04:43:08.361Z,90.37
2018-01-13T04:44:01.699Z,91.04
2018-01-13T04:44:53.836Z,91.33
2018-01-13T04:45:45.976Z,91.23
2018-01-13T04:46:38.319Z,91.04
2018-01-13T04:47:30.152Z,91.13
2018-01-13T04:48:20.950Z,91.42
2018-01-13T04:49:02.348Z,90.85
2018-01-13T04:49:42.735Z,91.33
2018-01-13T04:50:23.180Z,91.04
2018-01-13T04:51:03.657Z,91.23
2018-01-13T04:51:44.008Z,91.33
2018-01-13T04:52:24.402Z,91.71
2018-01-13T04:53:04.718Z,91.99
2018-01-13T04:53:45.181Z,91.89
2018-01-13T04:54:25.581Z,91.71
2018-01-13T04:55:05.941Z,91.8
2018-01-13T04:55:46.366Z,91.13
2018-01-13T04:56:26.753Z,90.85
2018-01-13T04:57:07.200Z,90.19
2018-01-13T04:57:47.552Z,89.85
2018-01-13T04:58:27.942Z,89.66
2018-01-13T04:59:08.310Z,89.18
2018-01-13T04:59:48.817Z,89.18
2018-01-13T05:00:29.150Z,88.8
2018-01-13T05:01:09.574Z,88.42
2018-01-13T05:01:49.944Z,87.52
2018-01-13T05:02:30.355Z,87.23
2018-01-13T05:03:10.806Z,87.13
2018-01-13T05:03:51.093Z,86.66
2018-01-13T05:04:31.590Z,86.09
2018-01-13T05:05:11.934Z,86.38
2018-01-13T05:05:52.266Z,85.42
2018-01-13T05:06:32.687Z,85.42
2018-01-13T05:07:13.112Z,84.95
2018-01-13T05:07:53.521Z,84.76
2018-01-13T05:08:33.901Z,84.85
2018-01-13T05:09:14.253Z,85.52
2018-01-13T05:09:54.718Z,85.42
2018-01-13T05:10:35.114Z,84.76
2018-01-13T05:11:15.472Z,84.85
2018-01-13T05:11:55.929Z,84.56
2018-01-13T05:12:36.273Z,84.95
2018-01-13T05:13:16.667Z,84.61
2018-01-13T05:13:57.112Z,84.52
2018-01-13T05:14:37.532Z,83.75
2018-01-13T05:15:17.979Z,83.65
2018-01-13T05:15:58.341Z,83.94
2018-01-13T05:16:38.754Z,83.65
2018-01-13T05:17:19.131Z,83.37
2018-01-13T05:17:59.545Z,82.7
2018-01-13T05:18:39.980Z,82.9
2018-01-13T05:19:20.380Z,82.14
2018-01-13T05:20:00.727Z,82.51
2018-01-13T05:20:41.110Z,82.51
2018-01-13T05:21:21.516Z,83.52
2018-01-13T05:22:01.923Z,83.71
2018-01-13T05:22:42.346Z,84
2018-01-13T05:23:22.712Z,84.38
2018-01-13T05:24:03.054Z,84.38
2018-01-13T05:24:43.530Z,83.9
2018-01-13T05:25:23.864Z,84.13
2018-01-13T05:26:04.472Z,83.56
2018-01-13T05:26:44.846Z,84.13
2018-01-13T05:27:25.252Z,83.85
2018-01-13T05:28:05.654Z,83.33
2018-01-13T05:28:46.139Z,83.56
2018-01-13T05:29:26.498Z,83.75
2018-01-13T05:30:06.870Z,84.04
2018-01-13T05:30:47.237Z,83.37
2018-01-13T05:31:27.676Z,83.37
2018-01-13T05:32:08.080Z,83.81
2018-01-13T05:32:48.531Z,83.71
2018-01-13T05:33:28.918Z,84
2018-01-13T05:34:09.267Z,83.94
2018-01-13T05:34:49.682Z,83.71
2018-01-13T05:35:30.030Z,83.9
2018-01-13T05:36:10.419Z,84.76
2018-01-13T05:36:50.808Z,84.85
2018-01-13T05:37:31.201Z,84.76
2018-01-13T05:38:11.584Z,84.85
2018-01-13T05:38:51.973Z,85.61
2018-01-13T05:39:32.428Z,85.86
2018-01-13T05:40:12.794Z,86.14
2018-01-13T05:40:53.193Z,86.43
2018-01-13T05:41:33.560Z,86.9
2018-01-13T05:42:14.141Z,86.71
2018-01-13T05:42:54.923Z,86.9
2018-01-13T05:43:35.158Z,87.47
2018-01-13T05:44:15.554Z,87.38
2018-01-13T05:44:55.881Z,87.28
2018-01-13T05:45:36.283Z,87.19
2018-01-13T05:46:16.789Z,86.71
2018-01-13T05:46:57.060Z,87.95
2018-01-13T05:47:37.476Z,87.76
2018-01-13T05:48:17.984Z,88.23
2018-01-13T05:48:58.405Z,88.61
2018-01-13T05:49:38.760Z,88.47
2018-01-13T05:50:19.111Z,89.23
2018-01-13T05:50:59.531Z,89.52
2018-01-13T05:51:39.883Z,90
2018-01-13T05:52:20.311Z,90
2018-01-13T05:53:00.686Z,90.19
2018-01-13T05:53:41.043Z,91.13
2018-01-13T05:54:21.444Z,90.56
2018-01-13T05:55:01.856Z,90.75
2018-01-13T05:55:42.301Z,91.04
2018-01-13T05:56:22.677Z,90.66
2018-01-13T05:57:03.911Z,90.66
2018-01-13T05:57:44.182Z,90.94
2018-01-13T05:58:24.598Z,91.33
2018-01-13T05:59:05.090Z,91.23
2018-01-13T05:59:45.429Z,90.28
2018-01-13T06:00:25.801Z,91.33
2018-01-13T06:01:06.237Z,90.94
2018-01-13T06:01:46.709Z,91.85
2018-01-13T06:02:27.122Z,91.89
2018-01-13T06:03:07.518Z,91.71
2018-01-13T06:03:47.894Z,91.71
2018-01-13T06:04:28.445Z,91.71
2018-01-13T06:05:08.792Z,91.99
2018-01-13T06:05:49.235Z,91.61
2018-01-13T06:06:29.638Z,91.8
2018-01-13T06:07:10.155Z,91.8
2018-01-13T06:07:50.364Z,91.89
2018-01-13T06:08:30.886Z,91.33
2018-01-13T06:09:11.283Z,91.33
2018-01-13T06:09:51.685Z,90.28
2018-01-13T06:10:32.112Z,89.8
2018-01-13T06:11:12.512Z,90.19
2018-01-13T06:11:52.887Z,90.56
2018-01-13T06:12:33.399Z,90.47
2018-01-13T06:13:13.632Z,90.85
2018-01-13T06:13:54.008Z,90.37
2018-01-13T06:14:34.388Z,90.85
2018-01-13T06:15:14.895Z,90.52
2018-01-13T06:15:55.208Z,90.23
2018-01-13T06:16:35.622Z,89.37
2018-01-13T06:17:15.958Z,87.95
2018-01-13T06:17:56.364Z,87.19
2018-01-13T06:18:36.766Z,87.38
2018-01-13T06:19:17.134Z,87.95
2018-01-13T06:19:57.548Z,87.85
2018-01-13T06:20:37.984Z,88.04
2018-01-13T06:21:18.332Z,88.9
2018-01-13T06:21:58.911Z,89.04
2018-01-13T06:22:40.348Z,89.23
2018-01-13T06:23:20.555Z,89.14
2018-01-13T06:24:01.008Z,89.23
2018-01-13T06:24:41.369Z,89.52
2018-01-13T06:25:21.809Z,89.61
2018-01-13T06:26:02.257Z,89.9
2018-01-13T06:26:42.643Z,90.75
2018-01-13T06:27:23.081Z,90.94
2018-01-13T06:28:03.454Z,90.28
2018-01-13T06:28:43.863Z,90.37
2018-01-13T06:29:24.229Z,90.37
2018-01-13T06:30:04.630Z,90.09
2018-01-13T06:30:44.998Z,90.56
2018-01-13T06:31:25.355Z,90
2018-01-13T06:32:05.827Z,89.75
2018-01-13T06:32:46.166Z,89.37
2018-01-13T06:33:26.513Z,89.18
2018-01-13T06:34:06.917Z,88.52
2018-01-13T06:34:47.278Z,88.52
2018-01-13T06:35:27.716Z,88.8
2018-01-13T06:36:08.131Z,88.33
2018-01-13T06:36:48.588Z,87.76
2018-01-13T06:37:29.014Z,87.95
2018-01-13T06:38:09.429Z,87.95
2018-01-13T06:38:49.785Z,87.95
2018-01-13T06:39:30.133Z,88.8
2018-01-13T06:40:10.510Z,88.8
2018-01-13T06:40:50.902Z,89
2018-01-13T06:41:31.348Z,89.23
2018-01-13T06:42:11.798Z,89.42
2018-01-13T06:42:52.174Z,89.71
2018-01-13T06:43:32.594Z,89.9
2018-01-13T06:44:13.013Z,90.47
2018-01-13T06:44:53.395Z,90.66
2018-01-13T06:45:34.052Z,90.66
2018-01-13T06:46:15.355Z,90.47
2018-01-13T06:46:56.062Z,90.09
2018-01-13T06:47:36.450Z,91.04
2018-01-13T06:48:16.657Z,91.23
2018-01-13T06:48:57.080Z,91.89
2018-01-13T06:49:37.460Z,91.33
2018-01-13T06:50:17.832Z,91.13
2018-01-13T06:50:58.246Z,90.66
2018-01-13T06:51:38.813Z,90.37
2018-01-13T06:52:19.314Z,90
2018-01-13T06:52:59.695Z,89.71
2018-01-13T06:53:40.192Z,90.28
2018-01-13T06:54:21.818Z,90.56
2018-01-13T06:55:02.435Z,90.37
2018-01-13T06:55:42.841Z,91.13
2018-01-13T06:56:23.266Z,91.52
2018-01-13T06:57:03.836Z,90.28
2018-01-13T06:57:44.230Z,90.37
2018-01-13T06:58:24.592Z,91.33
2018-01-13T06:59:05.025Z,90.47
2018-01-13T06:59:45.396Z,90.37
2018-01-13T07:00:25.821Z,90
2018-01-13T07:01:06.153Z,89.52
2018-01-13T07:01:46.506Z,88.85
2018-01-13T07:02:26.946Z,88.76
2018-01-13T07:03:07.343Z,88.95
2018-01-13T07:03:47.780Z,88.67
2018-01-13T07:04:28.084Z,88.67
2018-01-13T07:05:08.612Z,89.14
2018-01-13T07:05:48.948Z,89.33
2018-01-13T07:06:29.327Z,89.04
2018-01-13T07:07:09.714Z,89.33
2018-01-13T07:07:50.155Z,89.33
2018-01-13T07:08:30.554Z,89.71
2018-01-13T07:09:10.967Z,89.33
2018-01-13T07:09:51.313Z,89.33
2018-01-13T07:10:31.778Z,89.33
2018-01-13T07:11:12.193Z,90
2018-01-13T07:11:52.667Z,90
2018-01-13T07:12:33.034Z,89.9
2018-01-13T07:13:13.385Z,90.37
2018-01-13T07:13:53.826Z,90
2018-01-13T07:14:34.376Z,89.61
2018-01-13T07:15:14.795Z,89.04
2018-01-13T07:15:55.226Z,88.95
2018-01-13T07:16:35.526Z,88.85
2018-01-13T07:17:15.958Z,88.76
2018-01-13T07:17:56.379Z,89.14
2018-01-13T07:18:36.798Z,89.33
2018-01-13T07:19:17.165Z,89.61
2018-01-13T07:19:57.536Z,89.61
2018-01-13T07:20:37.954Z,89.33
2018-01-13T07:21:18.357Z,89.61
2018-01-13T07:21:58.717Z,90.28
2018-01-13T07:22:39.123Z,90.28
2018-01-13T07:23:19.497Z,89.8
2018-01-13T07:23:59.978Z,89.42
2018-01-13T07:24:40.277Z,89.33
2018-01-13T07:25:20.702Z,89.33
2018-01-13T07:26:01.122Z,88.38
2018-01-13T07:26:41.597Z,88.57
2018-01-13T07:27:21.961Z,88.47
2018-01-13T07:28:02.336Z,88.38
2018-01-13T07:28:42.732Z,88.57
2018-01-13T07:29:23.103Z,88.67
2018-01-13T07:30:03.648Z,88.85
2018-01-13T07:30:44.186Z,89.14
2018-01-13T07:31:25.151Z,89.61
2018-01-13T07:32:05.429Z,89.23
2018-01-13T07:32:45.922Z,89.42
2018-01-13T07:33:26.284Z,90.28
2018-01-13T07:34:06.698Z,89.33
2018-01-13T07:34:47.064Z,88.76
2018-01-13T07:35:27.457Z,88.95
2018-01-13T07:36:07.820Z,87.71
2018-01-13T07:36:48.255Z,87.34
2018-01-13T07:37:28.657Z,87.62
2018-01-13T07:38:09.016Z,87.9
2018-01-13T07:38:49.476Z,88.76
2018-01-13T07:39:29.825Z,88.76
2018-01-13T07:40:10.229Z,88.04
2018-01-13T07:40:50.631Z,87.47
2018-01-13T07:41:31.087Z,87.19
2018-01-13T07:42:11.581Z,87.19
2018-01-13T07:42:51.987Z,87.09
2018-01-13T07:43:32.406Z,86.9
2018-01-13T07:44:12.787Z,86.9
2018-01-13T07:44:53.288Z,86.9
2018-01-13T07:45:33.665Z,86.99
2018-01-13T07:46:14.059Z,86.99
2018-01-13T07:46:54.444Z,86.52
2018-01-13T07:47:34.811Z,86.24
2018-01-13T07:48:15.306Z,86.14
2018-01-13T07:48:55.716Z,86.43
2018-01-13T07:49:36.243Z,86.86
2018-01-13T07:50:16.666Z,86.95
2018-01-13T07:50:57.067Z,87.24
2018-01-13T07:51:37.709Z,87.05
2018-01-13T07:52:18.032Z,87.24
2018-01-13T07:52:58.563Z,87.34
2018-01-13T07:53:38.887Z,87.14
2018-01-13T07:54:19.333Z,87.05
2018-01-13T07:54:59.723Z,87.34
2018-01-13T07:55:40.140Z,87.52
2018-01-13T07:56:20.497Z,88
2018-01-13T07:57:00.940Z,87.34
2018-01-13T07:57:41.320Z,87.52
2018-01-13T07:58:21.721Z,87.9
2018-01-13T07:59:02.118Z,87.81
2018-01-13T07:59:42.490Z,87.62
2018-01-13T08:00:22.878Z,86.95
2018-01-13T08:01:03.260Z,87.05
2018-01-13T08:01:43.687Z,86.76
2018-01-13T08:02:24.257Z,86.57
2018-01-13T08:03:05.322Z,86.91
2018-01-13T08:03:45.546Z,86.86
2018-01-13T08:04:25.964Z,87.05
2018-01-13T08:05:06.287Z,86.43
2018-01-13T08:05:46.633Z,86.86
2018-01-13T08:06:27.178Z,87.05
2018-01-13T08:07:07.637Z,86.57
2018-01-13T08:07:47.997Z,86.47
2018-01-13T08:08:28.369Z,86.19
2018-01-13T08:09:08.788Z,86.38
2018-01-13T08:09:49.896Z,85.91
2018-01-13T08:10:30.136Z,86.47
2018-01-13T08:11:10.544Z,86.38
2018-01-13T08:11:50.918Z,86.57
2018-01-13T08:12:31.278Z,87.24
2018-01-13T08:13:11.726Z,86.57
2018-01-13T08:13:52.410Z,86.47
2018-01-13T08:14:32.655Z,86.86
2018-01-13T08:15:13.080Z,86.47
2018-01-13T08:15:53.494Z,86.1
2018-01-13T08:16:33.897Z,86.1
2018-01-13T08:17:14.261Z,85.53
2018-01-13T08:17:54.684Z,85.43
2018-01-13T08:18:35.218Z,84.95
2018-01-13T08:19:15.720Z,84.77
2018-01-13T08:19:56.084Z,85.15
2018-01-13T08:20:36.552Z,84.67
2018-01-13T08:21:17.279Z,84.95
2018-01-13T08:21:57.513Z,84.95
2018-01-13T08:22:37.942Z,84.48
2018-01-13T08:23:18.488Z,84.39
2018-01-13T08:23:58.838Z,84.67
2018-01-13T08:24:39.490Z,84.63
2018-01-13T08:25:19.804Z,84.91
2018-01-13T08:26:00.390Z,84.72
2018-01-13T08:26:40.673Z,85.49
2018-01-13T08:27:21.269Z,85.39
2018-01-13T08:28:01.973Z,85.39
2018-01-13T08:28:42.240Z,85.58
2018-01-13T08:29:22.740Z,85.49
2018-01-13T08:30:03.230Z,85.3
2018-01-13T08:30:43.506Z,85.39
2018-01-13T08:31:23.920Z,86.05
2018-01-13T08:32:04.279Z,85.77
2018-01-13T08:32:44.801Z,85.39
2018-01-13T08:33:25.691Z,86.05
2018-01-13T08:34:06.251Z,85.86
2018-01-13T08:34:46.297Z,86.05
2018-01-13T08:35:26.896Z,86.63
2018-01-13T08:36:08.424Z,86.34
2018-01-13T08:36:49.125Z,86.24
2018-01-13T08:37:29.473Z,86.24
2018-01-13T08:38:09.683Z,87.01
2018-01-13T08:38:50.140Z,87.38
2018-01-13T08:39:30.718Z,87.29
2018-01-13T08:40:11.251Z,86.72
2018-01-13T08:40:51.704Z,86.72
2018-01-13T08:41:32.449Z,86.82
2018-01-13T08:42:13.249Z,87.38
2018-01-13T08:42:53.603Z,87.38
2018-01-13T08:43:34.333Z,86.82
2018-01-13T08:44:15.085Z,86.91
2018-01-13T08:44:55.111Z,87.01
2018-01-13T08:45:36.384Z,87.01
2018-01-13T08:46:17.499Z,87.01
2018-01-13T08:46:58.041Z,86.91
2018-01-13T08:47:38.516Z,86.82
2018-01-13T08:48:20.174Z,86.77
2018-01-13T08:49:15.900Z,86.72
2018-01-13T08:49:56.755Z,87.38
2018-01-13T08:50:37.403Z,87.29
2018-01-13T08:51:19.585Z,87.01
2018-01-13T08:52:01.213Z,87.19
2018-01-13T08:52:41.944Z,86.91
2018-01-13T08:53:22.296Z,86.72
2018-01-13T08:54:02.711Z,86.87
2018-01-13T08:54:43.261Z,87.38
2018-01-13T08:55:23.777Z,87.48
2018-01-13T08:56:04.870Z,86.82
2018-01-13T08:56:45.963Z,87.57
2018-01-13T08:57:26.282Z,87.43
2018-01-13T08:58:06.888Z,86.87
2018-01-13T08:58:47.373Z,87.1
2018-01-13T08:59:28.028Z,86.91
2018-01-13T09:00:08.537Z,86.87
2018-01-13T09:00:49.671Z,86.82
2018-01-13T09:01:30.189Z,87.1
2018-01-13T09:02:10.734Z,86.91
2018-01-13T09:02:50.994Z,86.87
2018-01-13T09:03:31.473Z,86.63
2018-01-13T09:04:11.921Z,87.1
2018-01-13T09:04:52.363Z,86.68
2018-01-13T09:05:33.774Z,86.77
2018-01-13T09:06:14.625Z,86.3
2018-01-13T09:06:55.087Z,86.96
2018-01-13T09:07:35.809Z,86.39
2018-01-13T09:08:16.458Z,87.15
2018-01-13T09:08:56.772Z,87.01
2018-01-13T09:09:37.286Z,86.24
2018-01-13T09:10:18.539Z,85.86
2018-01-13T09:10:59.031Z,86.05
2018-01-13T09:11:39.384Z,85.3
2018-01-13T09:12:20.534Z,85.49
2018-01-13T09:13:01.750Z,84.87
2018-01-13T09:13:42.973Z,84.4
2018-01-13T09:14:23.399Z,84.4
2018-01-13T09:15:04.180Z,83.54
2018-01-13T09:15:44.422Z,83.64
2018-01-13T09:16:25.043Z,83.45
2018-01-13T09:17:05.507Z,83.36
2018-01-13T09:17:46.223Z,83.73
2018-01-13T09:18:27.102Z,83.83
2018-01-13T09:19:07.138Z,83.83
2018-01-13T09:19:48.635Z,83.83
2018-01-13T09:20:29.173Z,83.45
2018-01-13T09:21:10.167Z,83.92
2018-01-13T09:21:50.438Z,83.54
2018-01-13T09:22:32.304Z,83.83
2018-01-13T09:23:13.213Z,83.39
2018-01-13T09:23:54.044Z,83.07
2018-01-13T09:24:34.509Z,82.88
2018-01-13T09:25:15.601Z,83.01
2018-01-13T09:25:56.896Z,83.36
2018-01-13T09:26:38.530Z,83.16
2018-01-13T09:27:21.161Z,83.16
2018-01-13T09:28:01.475Z,83.54
2018-01-13T09:28:41.812Z,83.64
2018-01-13T09:29:22.799Z,83.36
2018-01-13T09:30:03.440Z,83.45
2018-01-13T09:30:43.914Z,83.64
2018-01-13T09:31:25.739Z,83.36
2018-01-13T09:32:06.784Z,83.83
2018-01-13T09:32:47.607Z,83.92
2018-01-13T09:33:28.386Z,83.64
2018-01-13T09:34:08.937Z,83.83
2018-01-13T09:34:49.334Z,83.83
2018-01-13T09:35:32.376Z,83.64
2018-01-13T09:36:13.011Z,84.4
2018-01-13T09:36:53.756Z,84.78
2018-01-13T09:38:04.774Z,83.73
2018-01-13T09:38:45.266Z,83.59
2018-01-13T09:39:28.381Z,83.59
2018-01-13T09:40:08.873Z,83.78
2018-01-13T09:40:49.384Z,82.78